sensor_id;sensor_type;location;lat;lon;timestamp;P1;durP1;ratioP1;P2;durP2;ratioP2
39128;SDS011;24864;49.940;19.770;2023-03-25T00:00:53;6.38;;;4.43;;
39128;SDS011;24864;49.940;19.770;2023-03-25T00:03:23;6.45;;;4.88;;
39128;SDS011;24864;49.940;19.770;2023-03-25T00:05:52;4.47;;;3.97;;
39128;SDS011;24864;49.940;19.770;2023-03-25T00:08:21;4.38;;;3.90;;
39128;SDS011;24864;49.940;19.770;2023-03-25T00:10:51;4.88;;;4.22;;
39128;SDS011;24864;49.940;19.770;2023-03-25T00:13:19;5.28;;;3.72;;
39128;SDS011;24864;49.940;19.770;2023-03-25T00:15:49;5.05;;;4.13;;
39128;SDS011;24864;49.940;19.770;2023-03-25T00:18:19;5.90;;;4.07;;
39128;SDS011;24864;49.940;19.770;2023-03-25T00:20:48;5.20;;;3.80;;
39128;SDS011;24864;49.940;19.770;2023-03-25T00:23:16;6.18;;;4.50;;
39128;SDS011;24864;49.940;19.770;2023-03-25T00:25:47;5.47;;;4.32;;
39128;SDS011;24864;49.940;19.770;2023-03-25T00:28:18;5.78;;;4.00;;
39128;SDS011;24864;49.940;19.770;2023-03-25T00:30:47;6.03;;;3.53;;
39128;SDS011;24864;49.940;19.770;2023-03-25T00:33:14;4.82;;;4.03;;
39128;SDS011;24864;49.940;19.770;2023-03-25T00:35:43;4.50;;;3.97;;
39128;SDS011;24864;49.940;19.770;2023-03-25T00:38:15;5.57;;;4.18;;
39128;SDS011;24864;49.940;19.770;2023-03-25T00:40:43;4.57;;;4.07;;
39128;SDS011;24864;49.940;19.770;2023-03-25T00:43:15;5.60;;;3.60;;
39128;SDS011;24864;49.940;19.770;2023-03-25T00:45:43;4.60;;;3.63;;
39128;SDS011;24864;49.940;19.770;2023-03-25T00:48:11;5.22;;;3.67;;
39128;SDS011;24864;49.940;19.770;2023-03-25T00:50:39;5.65;;;3.55;;
39128;SDS011;24864;49.940;19.770;2023-03-25T00:53:07;5.35;;;3.97;;
39128;SDS011;24864;49.940;19.770;2023-03-25T00:55:36;10.65;;;5.20;;
39128;SDS011;24864;49.940;19.770;2023-03-25T00:58:04;8.38;;;5.15;;
39128;SDS011;24864;49.940;19.770;2023-03-25T01:00:33;7.30;;;4.78;;
39128;SDS011;24864;49.940;19.770;2023-03-25T01:03:01;7.93;;;5.13;;
39128;SDS011;24864;49.940;19.770;2023-03-25T01:05:30;7.32;;;5.45;;
39128;SDS011;24864;49.940;19.770;2023-03-25T01:07:58;15.57;;;9.07;;
39128;SDS011;24864;49.940;19.770;2023-03-25T01:10:27;4.95;;;4.03;;
39128;SDS011;24864;49.940;19.770;2023-03-25T01:12:55;6.75;;;4.20;;
39128;SDS011;24864;49.940;19.770;2023-03-25T01:15:23;5.93;;;3.90;;
39128;SDS011;24864;49.940;19.770;2023-03-25T01:17:53;6.57;;;4.28;;
39128;SDS011;24864;49.940;19.770;2023-03-25T01:20:21;6.40;;;4.55;;
39128;SDS011;24864;49.940;19.770;2023-03-25T01:22:49;6.07;;;4.38;;
39128;SDS011;24864;49.940;19.770;2023-03-25T01:25:17;7.35;;;5.00;;
39128;SDS011;24864;49.940;19.770;2023-03-25T01:27:45;9.15;;;5.47;;
39128;SDS011;24864;49.940;19.770;2023-03-25T01:30:14;10.75;;;5.45;;
39128;SDS011;24864;49.940;19.770;2023-03-25T01:32:42;6.97;;;5.47;;
39128;SDS011;24864;49.940;19.770;2023-03-25T01:35:11;6.63;;;5.40;;
39128;SDS011;24864;49.940;19.770;2023-03-25T01:37:40;9.02;;;5.78;;
39128;SDS011;24864;49.940;19.770;2023-03-25T01:40:11;7.13;;;5.93;;
39128;SDS011;24864;49.940;19.770;2023-03-25T01:42:44;7.05;;;5.32;;
39128;SDS011;24864;49.940;19.770;2023-03-25T01:45:14;8.70;;;6.88;;
39128;SDS011;24864;49.940;19.770;2023-03-25T01:47:46;6.05;;;4.93;;
39128;SDS011;24864;49.940;19.770;2023-03-25T01:50:17;6.30;;;4.30;;
39128;SDS011;24864;49.940;19.770;2023-03-25T01:52:47;6.40;;;4.65;;
39128;SDS011;24864;49.940;19.770;2023-03-25T01:55:17;6.13;;;4.95;;
39128;SDS011;24864;49.940;19.770;2023-03-25T01:57:46;7.07;;;4.75;;
39128;SDS011;24864;49.940;19.770;2023-03-25T02:00:15;6.45;;;4.65;;
39128;SDS011;24864;49.940;19.770;2023-03-25T02:02:44;5.32;;;4.40;;
39128;SDS011;24864;49.940;19.770;2023-03-25T02:05:15;7.38;;;4.32;;
39128;SDS011;24864;49.940;19.770;2023-03-25T02:07:47;7.20;;;4.43;;
39128;SDS011;24864;49.940;19.770;2023-03-25T02:10:16;6.78;;;5.40;;
39128;SDS011;24864;49.940;19.770;2023-03-25T02:12:45;5.18;;;4.68;;
39128;SDS011;24864;49.940;19.770;2023-03-25T02:15:14;5.82;;;4.60;;
39128;SDS011;24864;49.940;19.770;2023-03-25T02:17:47;6.57;;;4.40;;
39128;SDS011;24864;49.940;19.770;2023-03-25T02:20:27;6.78;;;4.80;;
39128;SDS011;24864;49.940;19.770;2023-03-25T02:23:46;5.18;;;4.13;;
39128;SDS011;24864;49.940;19.770;2023-03-25T02:26:59;5.60;;;4.50;;
39128;SDS011;24864;49.940;19.770;2023-03-25T02:29:44;7.88;;;5.70;;
39128;SDS011;24864;49.940;19.770;2023-03-25T02:32:30;5.53;;;4.80;;
39128;SDS011;24864;49.940;19.770;2023-03-25T02:35:14;5.05;;;4.00;;
39128;SDS011;24864;49.940;19.770;2023-03-25T02:40:51;9.13;;;4.55;;
39128;SDS011;24864;49.940;19.770;2023-03-25T02:43:23;5.75;;;4.78;;
39128;SDS011;24864;49.940;19.770;2023-03-25T02:48:26;7.25;;;4.47;;
39128;SDS011;24864;49.940;19.770;2023-03-25T02:50:58;6.63;;;4.75;;
39128;SDS011;24864;49.940;19.770;2023-03-25T02:53:32;5.90;;;4.70;;
39128;SDS011;24864;49.940;19.770;2023-03-25T02:56:02;7.10;;;5.07;;
39128;SDS011;24864;49.940;19.770;2023-03-25T02:58:34;7.57;;;4.88;;
39128;SDS011;24864;49.940;19.770;2023-03-25T03:01:03;8.10;;;5.93;;
39128;SDS011;24864;49.940;19.770;2023-03-25T03:03:35;6.50;;;5.07;;
39128;SDS011;24864;49.940;19.770;2023-03-25T03:06:04;8.05;;;6.07;;
39128;SDS011;24864;49.940;19.770;2023-03-25T03:08:39;8.23;;;5.75;;
39128;SDS011;24864;49.940;19.770;2023-03-25T03:11:14;7.32;;;6.45;;
39128;SDS011;24864;49.940;19.770;2023-03-25T03:13:52;9.20;;;5.97;;
39128;SDS011;24864;49.940;19.770;2023-03-25T03:16:31;7.35;;;5.72;;
39128;SDS011;24864;49.940;19.770;2023-03-25T03:19:04;8.15;;;7.35;;
39128;SDS011;24864;49.940;19.770;2023-03-25T03:21:40;9.23;;;7.53;;
39128;SDS011;24864;49.940;19.770;2023-03-25T03:24:15;13.00;;;8.85;;
39128;SDS011;24864;49.940;19.770;2023-03-25T03:26:48;12.23;;;9.18;;
39128;SDS011;24864;49.940;19.770;2023-03-25T03:29:22;10.93;;;9.82;;
39128;SDS011;24864;49.940;19.770;2023-03-25T03:31:53;13.40;;;11.25;;
39128;SDS011;24864;49.940;19.770;2023-03-25T03:34:33;12.57;;;10.32;;
39128;SDS011;24864;49.940;19.770;2023-03-25T03:37:06;13.35;;;11.68;;
39128;SDS011;24864;49.940;19.770;2023-03-25T03:39:37;13.15;;;11.52;;
39128;SDS011;24864;49.940;19.770;2023-03-25T03:42:06;14.10;;;12.60;;
39128;SDS011;24864;49.940;19.770;2023-03-25T03:44:40;15.05;;;13.15;;
39128;SDS011;24864;49.940;19.770;2023-03-25T03:47:11;16.27;;;12.85;;
39128;SDS011;24864;49.940;19.770;2023-03-25T03:49:42;15.95;;;13.50;;
39128;SDS011;24864;49.940;19.770;2023-03-25T03:52:13;16.53;;;13.87;;
39128;SDS011;24864;49.940;19.770;2023-03-25T03:54:46;19.45;;;14.52;;
39128;SDS011;24864;49.940;19.770;2023-03-25T03:57:17;17.30;;;14.73;;
39128;SDS011;24864;49.940;19.770;2023-03-25T03:59:50;17.75;;;14.57;;
39128;SDS011;24864;49.940;19.770;2023-03-25T04:02:23;22.35;;;14.98;;
39128;SDS011;24864;49.940;19.770;2023-03-25T04:04:54;17.23;;;14.93;;
39128;SDS011;24864;49.940;19.770;2023-03-25T04:07:27;17.42;;;14.15;;
39128;SDS011;24864;49.940;19.770;2023-03-25T04:10:09;18.67;;;14.30;;
39128;SDS011;24864;49.940;19.770;2023-03-25T04:12:41;17.13;;;14.27;;
39128;SDS011;24864;49.940;19.770;2023-03-25T04:15:11;10.77;;;8.80;;
39128;SDS011;24864;49.940;19.770;2023-03-25T04:17:41;11.27;;;9.52;;
39128;SDS011;24864;49.940;19.770;2023-03-25T04:20:09;13.20;;;9.10;;
39128;SDS011;24864;49.940;19.770;2023-03-25T04:22:41;10.30;;;7.13;;
39128;SDS011;24864;49.940;19.770;2023-03-25T04:25:12;12.40;;;7.03;;
39128;SDS011;24864;49.940;19.770;2023-03-25T04:27:40;9.68;;;7.82;;
39128;SDS011;24864;49.940;19.770;2023-03-25T04:30:14;14.25;;;8.18;;
39128;SDS011;24864;49.940;19.770;2023-03-25T04:32:44;10.10;;;7.57;;
39128;SDS011;24864;49.940;19.770;2023-03-25T04:35:13;10.80;;;7.78;;
39128;SDS011;24864;49.940;19.770;2023-03-25T04:37:42;9.23;;;7.20;;
39128;SDS011;24864;49.940;19.770;2023-03-25T04:40:13;9.30;;;6.85;;
39128;SDS011;24864;49.940;19.770;2023-03-25T04:42:44;7.90;;;5.10;;
39128;SDS011;24864;49.940;19.770;2023-03-25T04:45:12;7.25;;;4.90;;
39128;SDS011;24864;49.940;19.770;2023-03-25T04:47:42;6.25;;;3.90;;
39128;SDS011;24864;49.940;19.770;2023-03-25T04:50:15;6.68;;;3.92;;
39128;SDS011;24864;49.940;19.770;2023-03-25T04:52:47;6.75;;;4.78;;
39128;SDS011;24864;49.940;19.770;2023-03-25T04:55:17;7.68;;;4.85;;
39128;SDS011;24864;49.940;19.770;2023-03-25T04:57:45;8.13;;;5.10;;
39128;SDS011;24864;49.940;19.770;2023-03-25T05:00:15;6.38;;;4.40;;
39128;SDS011;24864;49.940;19.770;2023-03-25T05:02:45;11.38;;;4.55;;
39128;SDS011;24864;49.940;19.770;2023-03-25T05:05:14;6.60;;;3.63;;
39128;SDS011;24864;49.940;19.770;2023-03-25T05:07:44;6.70;;;4.53;;
39128;SDS011;24864;49.940;19.770;2023-03-25T05:10:15;8.02;;;4.63;;
39128;SDS011;24864;49.940;19.770;2023-03-25T05:12:46;7.75;;;5.22;;
39128;SDS011;24864;49.940;19.770;2023-03-25T05:15:15;10.18;;;5.75;;
39128;SDS011;24864;49.940;19.770;2023-03-25T05:17:44;6.93;;;5.05;;
39128;SDS011;24864;49.940;19.770;2023-03-25T05:20:12;7.90;;;5.60;;
39128;SDS011;24864;49.940;19.770;2023-03-25T05:22:41;8.05;;;5.47;;
39128;SDS011;24864;49.940;19.770;2023-03-25T05:25:11;16.55;;;6.85;;
39128;SDS011;24864;49.940;19.770;2023-03-25T05:27:40;10.27;;;5.75;;
39128;SDS011;24864;49.940;19.770;2023-03-25T05:30:09;11.02;;;5.50;;
39128;SDS011;24864;49.940;19.770;2023-03-25T05:32:38;9.18;;;5.32;;
39128;SDS011;24864;49.940;19.770;2023-03-25T05:35:07;8.05;;;5.55;;
39128;SDS011;24864;49.940;19.770;2023-03-25T05:37:35;10.85;;;5.22;;
39128;SDS011;24864;49.940;19.770;2023-03-25T05:40:05;11.88;;;6.10;;
39128;SDS011;24864;49.940;19.770;2023-03-25T05:42:42;8.82;;;5.18;;
39128;SDS011;24864;49.940;19.770;2023-03-25T05:45:14;9.57;;;5.07;;
39128;SDS011;24864;49.940;19.770;2023-03-25T05:47:43;12.98;;;6.22;;
39128;SDS011;24864;49.940;19.770;2023-03-25T05:50:11;9.95;;;5.78;;
39128;SDS011;24864;49.940;19.770;2023-03-25T05:52:41;10.25;;;6.13;;
39128;SDS011;24864;49.940;19.770;2023-03-25T05:55:10;13.48;;;6.80;;
39128;SDS011;24864;49.940;19.770;2023-03-25T05:57:39;9.32;;;6.00;;
39128;SDS011;24864;49.940;19.770;2023-03-25T06:00:10;10.10;;;5.60;;
39128;SDS011;24864;49.940;19.770;2023-03-25T06:02:39;9.32;;;5.72;;
39128;SDS011;24864;49.940;19.770;2023-03-25T06:05:09;13.32;;;5.97;;
39128;SDS011;24864;49.940;19.770;2023-03-25T06:07:39;12.23;;;5.30;;
39128;SDS011;24864;49.940;19.770;2023-03-25T06:10:09;7.15;;;4.72;;
39128;SDS011;24864;49.940;19.770;2023-03-25T06:12:37;10.05;;;5.85;;
39128;SDS011;24864;49.940;19.770;2023-03-25T06:15:06;9.07;;;4.78;;
39128;SDS011;24864;49.940;19.770;2023-03-25T06:17:38;8.27;;;4.00;;
39128;SDS011;24864;49.940;19.770;2023-03-25T06:20:08;7.80;;;3.85;;
39128;SDS011;24864;49.940;19.770;2023-03-25T06:22:38;8.40;;;3.95;;
39128;SDS011;24864;49.940;19.770;2023-03-25T06:25:09;7.07;;;4.30;;
39128;SDS011;24864;49.940;19.770;2023-03-25T06:27:38;11.85;;;4.43;;
39128;SDS011;24864;49.940;19.770;2023-03-25T06:30:07;9.57;;;4.57;;
39128;SDS011;24864;49.940;19.770;2023-03-25T06:32:38;8.32;;;5.05;;
39128;SDS011;24864;49.940;19.770;2023-03-25T06:35:08;53.35;;;31.20;;
39128;SDS011;24864;49.940;19.770;2023-03-25T06:37:37;10.20;;;9.07;;
39128;SDS011;24864;49.940;19.770;2023-03-25T06:40:06;11.57;;;5.78;;
39128;SDS011;24864;49.940;19.770;2023-03-25T06:42:35;14.32;;;7.63;;
39128;SDS011;24864;49.940;19.770;2023-03-25T06:45:05;7.25;;;4.97;;
39128;SDS011;24864;49.940;19.770;2023-03-25T06:47:33;8.95;;;5.47;;
39128;SDS011;24864;49.940;19.770;2023-03-25T06:50:03;7.43;;;5.53;;
39128;SDS011;24864;49.940;19.770;2023-03-25T06:52:33;12.05;;;5.35;;
39128;SDS011;24864;49.940;19.770;2023-03-25T06:55:01;21.98;;;19.90;;
39128;SDS011;24864;49.940;19.770;2023-03-25T06:57:29;21.52;;;19.25;;
39128;SDS011;24864;49.940;19.770;2023-03-25T06:59:58;10.45;;;8.48;;
39128;SDS011;24864;49.940;19.770;2023-03-25T07:02:26;9.05;;;6.60;;
39128;SDS011;24864;49.940;19.770;2023-03-25T07:04:54;11.07;;;7.47;;
39128;SDS011;24864;49.940;19.770;2023-03-25T07:07:24;15.18;;;11.80;;
39128;SDS011;24864;49.940;19.770;2023-03-25T07:09:52;20.30;;;11.75;;
39128;SDS011;24864;49.940;19.770;2023-03-25T07:12:21;12.10;;;9.43;;
39128;SDS011;24864;49.940;19.770;2023-03-25T07:14:50;14.07;;;9.88;;
39128;SDS011;24864;49.940;19.770;2023-03-25T07:17:18;12.70;;;9.40;;
39128;SDS011;24864;49.940;19.770;2023-03-25T07:19:47;17.90;;;12.57;;
39128;SDS011;24864;49.940;19.770;2023-03-25T07:22:15;11.93;;;9.85;;
39128;SDS011;24864;49.940;19.770;2023-03-25T07:24:45;10.90;;;9.02;;
39128;SDS011;24864;49.940;19.770;2023-03-25T07:27:13;10.70;;;9.23;;
39128;SDS011;24864;49.940;19.770;2023-03-25T07:29:42;14.43;;;8.63;;
39128;SDS011;24864;49.940;19.770;2023-03-25T07:32:10;10.18;;;8.85;;
39128;SDS011;24864;49.940;19.770;2023-03-25T07:34:38;9.13;;;8.10;;
39128;SDS011;24864;49.940;19.770;2023-03-25T07:37:07;11.05;;;7.65;;
39128;SDS011;24864;49.940;19.770;2023-03-25T07:39:35;14.75;;;8.32;;
39128;SDS011;24864;49.940;19.770;2023-03-25T07:42:05;12.70;;;7.18;;
39128;SDS011;24864;49.940;19.770;2023-03-25T07:44:33;10.88;;;8.38;;
39128;SDS011;24864;49.940;19.770;2023-03-25T07:47:01;11.00;;;6.95;;
39128;SDS011;24864;49.940;19.770;2023-03-25T07:49:30;9.35;;;6.20;;
39128;SDS011;24864;49.940;19.770;2023-03-25T07:51:58;9.60;;;6.05;;
39128;SDS011;24864;49.940;19.770;2023-03-25T07:54:26;8.35;;;6.05;;
39128;SDS011;24864;49.940;19.770;2023-03-25T07:56:54;13.48;;;5.75;;
39128;SDS011;24864;49.940;19.770;2023-03-25T07:59:24;7.97;;;6.35;;
39128;SDS011;24864;49.940;19.770;2023-03-25T08:01:55;7.43;;;4.63;;
39128;SDS011;24864;49.940;19.770;2023-03-25T08:04:24;10.30;;;5.28;;
39128;SDS011;24864;49.940;19.770;2023-03-25T08:06:52;8.57;;;4.97;;
39128;SDS011;24864;49.940;19.770;2023-03-25T08:09:20;9.88;;;4.50;;
39128;SDS011;24864;49.940;19.770;2023-03-25T08:11:48;8.10;;;4.13;;
39128;SDS011;24864;49.940;19.770;2023-03-25T08:14:17;7.55;;;3.75;;
39128;SDS011;24864;49.940;19.770;2023-03-25T08:16:46;9.35;;;4.38;;
39128;SDS011;24864;49.940;19.770;2023-03-25T08:19:15;7.78;;;4.57;;
39128;SDS011;24864;49.940;19.770;2023-03-25T08:21:43;5.40;;;3.40;;
39128;SDS011;24864;49.940;19.770;2023-03-25T08:24:11;6.90;;;4.05;;
39128;SDS011;24864;49.940;19.770;2023-03-25T08:26:39;9.45;;;4.75;;
39128;SDS011;24864;49.940;19.770;2023-03-25T08:29:07;7.82;;;3.13;;
39128;SDS011;24864;49.940;19.770;2023-03-25T08:31:36;5.53;;;4.28;;
39128;SDS011;24864;49.940;19.770;2023-03-25T08:34:07;6.60;;;4.43;;
39128;SDS011;24864;49.940;19.770;2023-03-25T08:36:35;7.07;;;2.72;;
39128;SDS011;24864;49.940;19.770;2023-03-25T08:39:05;6.55;;;3.10;;
39128;SDS011;24864;49.940;19.770;2023-03-25T08:41:37;9.30;;;3.67;;
39128;SDS011;24864;49.940;19.770;2023-03-25T08:44:06;7.38;;;2.70;;
39128;SDS011;24864;49.940;19.770;2023-03-25T08:46:34;4.30;;;2.83;;
39128;SDS011;24864;49.940;19.770;2023-03-25T08:49:03;6.72;;;2.28;;
39128;SDS011;24864;49.940;19.770;2023-03-25T08:51:33;6.22;;;2.50;;
39128;SDS011;24864;49.940;19.770;2023-03-25T08:54:01;4.15;;;2.45;;
39128;SDS011;24864;49.940;19.770;2023-03-25T08:56:29;5.95;;;2.00;;
39128;SDS011;24864;49.940;19.770;2023-03-25T08:58:58;7.70;;;2.47;;
39128;SDS011;24864;49.940;19.770;2023-03-25T09:01:26;3.85;;;2.33;;
39128;SDS011;24864;49.940;19.770;2023-03-25T09:03:55;5.88;;;2.45;;
39128;SDS011;24864;49.940;19.770;2023-03-25T09:06:23;4.45;;;2.75;;
39128;SDS011;24864;49.940;19.770;2023-03-25T09:08:53;4.40;;;2.00;;
39128;SDS011;24864;49.940;19.770;2023-03-25T09:11:22;3.75;;;2.13;;
39128;SDS011;24864;49.940;19.770;2023-03-25T09:14:02;4.10;;;1.65;;
39128;SDS011;24864;49.940;19.770;2023-03-25T09:16:31;4.72;;;1.40;;
39128;SDS011;24864;49.940;19.770;2023-03-25T09:19:00;4.50;;;1.92;;
39128;SDS011;24864;49.940;19.770;2023-03-25T09:21:29;5.50;;;1.70;;
39128;SDS011;24864;49.940;19.770;2023-03-25T09:23:58;3.53;;;2.03;;
39128;SDS011;24864;49.940;19.770;2023-03-25T09:26:26;6.60;;;2.08;;
39128;SDS011;24864;49.940;19.770;2023-03-25T09:28:55;3.53;;;2.65;;
39128;SDS011;24864;49.940;19.770;2023-03-25T09:31:23;5.45;;;2.45;;
39128;SDS011;24864;49.940;19.770;2023-03-25T09:33:51;8.55;;;3.55;;
39128;SDS011;24864;49.940;19.770;2023-03-25T09:36:19;7.10;;;3.42;;
39128;SDS011;24864;49.940;19.770;2023-03-25T09:38:48;3.53;;;2.00;;
39128;SDS011;24864;49.940;19.770;2023-03-25T09:41:25;5.20;;;1.70;;
39128;SDS011;24864;49.940;19.770;2023-03-25T09:44:00;4.32;;;2.60;;
39128;SDS011;24864;49.940;19.770;2023-03-25T09:46:31;7.57;;;2.17;;
39128;SDS011;24864;49.940;19.770;2023-03-25T09:49:00;8.60;;;2.17;;
39128;SDS011;24864;49.940;19.770;2023-03-25T09:51:29;6.00;;;2.08;;
39128;SDS011;24864;49.940;19.770;2023-03-25T09:54:02;4.18;;;1.52;;
39128;SDS011;24864;49.940;19.770;2023-03-25T09:56:36;6.60;;;2.10;;
39128;SDS011;24864;49.940;19.770;2023-03-25T09:59:08;5.93;;;2.10;;
39128;SDS011;24864;49.940;19.770;2023-03-25T10:07:19;3.90;;;2.03;;
39128;SDS011;24864;49.940;19.770;2023-03-25T10:10:03;5.68;;;1.60;;
39128;SDS011;24864;49.940;19.770;2023-03-25T10:12:39;6.65;;;2.72;;
39128;SDS011;24864;49.940;19.770;2023-03-25T10:15:13;6.65;;;2.50;;
39128;SDS011;24864;49.940;19.770;2023-03-25T10:17:50;5.93;;;2.08;;
39128;SDS011;24864;49.940;19.770;2023-03-25T10:20:32;4.70;;;2.50;;
39128;SDS011;24864;49.940;19.770;2023-03-25T10:23:09;10.45;;;3.97;;
39128;SDS011;24864;49.940;19.770;2023-03-25T10:25:42;6.25;;;2.70;;
39128;SDS011;24864;49.940;19.770;2023-03-25T10:28:15;8.80;;;3.38;;
39128;SDS011;24864;49.940;19.770;2023-03-25T10:30:47;7.38;;;2.85;;
39128;SDS011;24864;49.940;19.770;2023-03-25T10:33:18;5.18;;;2.97;;
39128;SDS011;24864;49.940;19.770;2023-03-25T10:35:50;2.58;;;2.10;;
39128;SDS011;24864;49.940;19.770;2023-03-25T10:38:19;5.72;;;2.70;;
39128;SDS011;24864;49.940;19.770;2023-03-25T10:40:50;5.97;;;2.85;;
39128;SDS011;24864;49.940;19.770;2023-03-25T10:43:23;10.30;;;3.90;;
39128;SDS011;24864;49.940;19.770;2023-03-25T10:45:54;4.25;;;2.60;;
39128;SDS011;24864;49.940;19.770;2023-03-25T10:48:25;6.78;;;1.98;;
39128;SDS011;24864;49.940;19.770;2023-03-25T10:50:57;6.78;;;3.50;;
39128;SDS011;24864;49.940;19.770;2023-03-25T10:53:29;5.97;;;2.55;;
39128;SDS011;24864;49.940;19.770;2023-03-25T10:55:58;7.07;;;2.35;;
39128;SDS011;24864;49.940;19.770;2023-03-25T10:58:31;4.20;;;2.20;;
39128;SDS011;24864;49.940;19.770;2023-03-25T11:01:02;3.57;;;1.87;;
39128;SDS011;24864;49.940;19.770;2023-03-25T11:03:36;4.95;;;2.67;;
39128;SDS011;24864;49.940;19.770;2023-03-25T11:06:08;5.78;;;2.67;;
39128;SDS011;24864;49.940;19.770;2023-03-25T11:08:54;6.05;;;2.15;;
39128;SDS011;24864;49.940;19.770;2023-03-25T11:11:29;5.70;;;2.20;;
39128;SDS011;24864;49.940;19.770;2023-03-25T11:14:00;7.32;;;2.42;;
39128;SDS011;24864;49.940;19.770;2023-03-25T11:16:30;5.60;;;1.50;;
39128;SDS011;24864;49.940;19.770;2023-03-25T11:18:59;4.82;;;1.73;;
39128;SDS011;24864;49.940;19.770;2023-03-25T11:21:29;5.35;;;1.95;;
39128;SDS011;24864;49.940;19.770;2023-03-25T11:23:59;4.25;;;1.95;;
39128;SDS011;24864;49.940;19.770;2023-03-25T11:26:28;2.83;;;1.48;;
39128;SDS011;24864;49.940;19.770;2023-03-25T11:29:05;2.25;;;1.50;;
39128;SDS011;24864;49.940;19.770;2023-03-25T11:34:03;2.78;;;1.40;;
39128;SDS011;24864;49.940;19.770;2023-03-25T11:36:34;3.25;;;1.40;;
39128;SDS011;24864;49.940;19.770;2023-03-25T11:39:08;2.72;;;1.00;;
39128;SDS011;24864;49.940;19.770;2023-03-25T11:41:42;2.42;;;0.80;;
39128;SDS011;24864;49.940;19.770;2023-03-25T11:44:17;1.95;;;0.65;;
39128;SDS011;24864;49.940;19.770;2023-03-25T11:46:48;5.28;;;0.90;;
39128;SDS011;24864;49.940;19.770;2023-03-25T11:49:18;1.80;;;1.02;;
39128;SDS011;24864;49.940;19.770;2023-03-25T11:51:48;3.30;;;1.10;;
39128;SDS011;24864;49.940;19.770;2023-03-25T11:54:18;5.15;;;1.23;;
39128;SDS011;24864;49.940;19.770;2023-03-25T11:56:47;3.90;;;1.20;;
39128;SDS011;24864;49.940;19.770;2023-03-25T11:59:20;4.93;;;1.50;;
39128;SDS011;24864;49.940;19.770;2023-03-25T12:01:51;3.08;;;1.58;;
39128;SDS011;24864;49.940;19.770;2023-03-25T12:04:26;3.40;;;1.40;;
39128;SDS011;24864;49.940;19.770;2023-03-25T12:06:56;3.17;;;1.30;;
39128;SDS011;24864;49.940;19.770;2023-03-25T12:09:26;4.68;;;1.08;;
39128;SDS011;24864;49.940;19.770;2023-03-25T12:12:00;5.43;;;1.50;;
39128;SDS011;24864;49.940;19.770;2023-03-25T12:14:48;4.07;;;1.98;;
39128;SDS011;24864;49.940;19.770;2023-03-25T12:17:21;4.18;;;1.95;;
39128;SDS011;24864;49.940;19.770;2023-03-25T12:20:00;3.90;;;1.45;;
39128;SDS011;24864;49.940;19.770;2023-03-25T12:22:38;3.65;;;1.58;;
39128;SDS011;24864;49.940;19.770;2023-03-25T12:25:16;6.25;;;2.10;;
39128;SDS011;24864;49.940;19.770;2023-03-25T12:27:52;2.67;;;1.27;;
39128;SDS011;24864;49.940;19.770;2023-03-25T12:30:30;6.07;;;1.73;;
39128;SDS011;24864;49.940;19.770;2023-03-25T12:33:04;5.70;;;1.70;;
39128;SDS011;24864;49.940;19.770;2023-03-25T12:35:40;6.30;;;2.03;;
39128;SDS011;24864;49.940;19.770;2023-03-25T12:40:46;4.78;;;2.88;;
39128;SDS011;24864;49.940;19.770;2023-03-25T12:43:24;4.40;;;1.92;;
39128;SDS011;24864;49.940;19.770;2023-03-25T12:46:03;1.95;;;1.10;;
39128;SDS011;24864;49.940;19.770;2023-03-25T12:48:44;2.45;;;1.10;;
39128;SDS011;24864;49.940;19.770;2023-03-25T12:51:19;3.28;;;1.80;;
39128;SDS011;24864;49.940;19.770;2023-03-25T12:53:55;7.40;;;1.30;;
39128;SDS011;24864;49.940;19.770;2023-03-25T12:56:33;2.08;;;1.10;;
39128;SDS011;24864;49.940;19.770;2023-03-25T12:59:12;10.23;;;6.38;;
39128;SDS011;24864;49.940;19.770;2023-03-25T13:02:11;4.72;;;1.80;;
39128;SDS011;24864;49.940;19.770;2023-03-25T13:04:53;2.70;;;1.17;;
39128;SDS011;24864;49.940;19.770;2023-03-25T13:07:29;3.28;;;1.90;;
39128;SDS011;24864;49.940;19.770;2023-03-25T13:10:02;1.48;;;0.75;;
39128;SDS011;24864;49.940;19.770;2023-03-25T13:12:34;3.28;;;1.00;;
39128;SDS011;24864;49.940;19.770;2023-03-25T13:15:13;6.00;;;1.00;;
39128;SDS011;24864;49.940;19.770;2023-03-25T13:17:53;1.52;;;0.80;;
39128;SDS011;24864;49.940;19.770;2023-03-25T13:20:23;1.13;;;0.70;;
39128;SDS011;24864;49.940;19.770;2023-03-25T13:22:53;2.03;;;1.20;;
39128;SDS011;24864;49.940;19.770;2023-03-25T13:25:28;2.40;;;1.27;;
39128;SDS011;24864;49.940;19.770;2023-03-25T13:27:59;2.42;;;1.10;;
39128;SDS011;24864;49.940;19.770;2023-03-25T13:30:32;2.30;;;1.27;;
39128;SDS011;24864;49.940;19.770;2023-03-25T13:33:05;5.60;;;1.95;;
39128;SDS011;24864;49.940;19.770;2023-03-25T13:35:40;3.42;;;2.10;;
39128;SDS011;24864;49.940;19.770;2023-03-25T13:38:12;39.67;;;20.65;;
39128;SDS011;24864;49.940;19.770;2023-03-25T13:40:45;8.00;;;3.92;;
39128;SDS011;24864;49.940;19.770;2023-03-25T13:43:23;5.97;;;2.67;;
39128;SDS011;24864;49.940;19.770;2023-03-25T13:45:54;4.25;;;1.55;;
39128;SDS011;24864;49.940;19.770;2023-03-25T13:48:28;3.85;;;1.83;;
39128;SDS011;24864;49.940;19.770;2023-03-25T13:51:01;3.63;;;1.80;;
39128;SDS011;24864;49.940;19.770;2023-03-25T13:53:31;5.00;;;1.55;;
39128;SDS011;24864;49.940;19.770;2023-03-25T13:56:13;2.08;;;1.33;;
39128;SDS011;24864;49.940;19.770;2023-03-25T13:59:01;3.10;;;1.60;;
39128;SDS011;24864;49.940;19.770;2023-03-25T14:01:41;4.78;;;2.30;;
39128;SDS011;24864;49.940;19.770;2023-03-25T14:04:21;6.00;;;1.65;;
39128;SDS011;24864;49.940;19.770;2023-03-25T14:07:00;4.38;;;1.58;;
39128;SDS011;24864;49.940;19.770;2023-03-25T14:12:49;6.45;;;1.77;;
39128;SDS011;24864;49.940;19.770;2023-03-25T14:15:19;18.08;;;13.25;;
39128;SDS011;24864;49.940;19.770;2023-03-25T14:17:49;6.18;;;3.75;;
39128;SDS011;24864;49.940;19.770;2023-03-25T14:20:21;6.13;;;3.78;;
39128;SDS011;24864;49.940;19.770;2023-03-25T14:22:54;4.97;;;3.13;;
39128;SDS011;24864;49.940;19.770;2023-03-25T14:25:26;8.17;;;4.10;;
39128;SDS011;24864;49.940;19.770;2023-03-25T14:27:58;5.60;;;3.58;;
39128;SDS011;24864;49.940;19.770;2023-03-25T14:30:27;4.07;;;2.42;;
39128;SDS011;24864;49.940;19.770;2023-03-25T14:32:56;6.03;;;1.92;;
39128;SDS011;24864;49.940;19.770;2023-03-25T14:41:53;6.70;;;1.80;;
39128;SDS011;24864;49.940;19.770;2023-03-25T14:44:27;3.63;;;1.83;;
39128;SDS011;24864;49.940;19.770;2023-03-25T14:46:59;3.08;;;1.63;;
39128;SDS011;24864;49.940;19.770;2023-03-25T14:49:45;5.13;;;1.80;;
39128;SDS011;24864;49.940;19.770;2023-03-25T14:52:22;3.75;;;2.28;;
39128;SDS011;24864;49.940;19.770;2023-03-25T14:54:55;4.03;;;1.90;;
39128;SDS011;24864;49.940;19.770;2023-03-25T14:57:23;3.63;;;2.03;;
39128;SDS011;24864;49.940;19.770;2023-03-25T14:59:54;4.07;;;1.83;;
39128;SDS011;24864;49.940;19.770;2023-03-25T15:02:29;5.07;;;2.65;;
39128;SDS011;24864;49.940;19.770;2023-03-25T15:04:59;4.97;;;2.20;;
39128;SDS011;24864;49.940;19.770;2023-03-25T15:07:44;3.50;;;1.97;;
39128;SDS011;24864;49.940;19.770;2023-03-25T15:10:24;6.18;;;1.70;;
39128;SDS011;24864;49.940;19.770;2023-03-25T15:12:55;5.05;;;1.98;;
39128;SDS011;24864;49.940;19.770;2023-03-25T15:15:31;4.07;;;1.85;;
39128;SDS011;24864;49.940;19.770;2023-03-25T15:18:01;5.28;;;2.63;;
39128;SDS011;24864;49.940;19.770;2023-03-25T15:20:31;2.80;;;1.50;;
39128;SDS011;24864;49.940;19.770;2023-03-25T15:25:59;5.22;;;2.75;;